CPG5 weather

Hawkesbury (East) Airport
Hawkesbury, Ontario, Canada

Public forecast

Using degrees Celsius for public forecast. Weather courtesy of forecast.io.

Closest aviation weather report (METAR) to Hawkesbury (East) Airport

Closest report is Montreal International (Mirabel) Airport, 22.2 nm (41.1 km) ENE. Retrieved 2020/06/01 22:00 UTC (40 minutes ago):

CYMX 012200Z 33006KT 290V360 20SM SCT020 BKN046 BKN070 BKN120 BKN200 11/05 A3007 RMK CU3SC4AC1AC1CI1 AC TR AC TR CI TR VIS SE 10 SLP188

Closest aviation forecast (TAF) to Hawkesbury (East) Airport

Closest forecast is Montreal International (Mirabel) Airport, 22.2 nm (41.1 km) ENE. Retrieved 2020/06/01 18:42 UTC (4 hours ago):

TAF CYMX 011738Z 0118/0218 25012KT P6SM SCT040 BKN080 OVC200 TEMPO 0118/0122 P6SM -SHRA BKN040 OVC080 FM012200 VRB03KT P6SM SCT060 FM020600 VRB03KT P6SM SCT100 FM021400 08005KT P6SM BKN080 RMK NXT FCST BY 020000Z